createdAt,value
2018-07-25T00:00:11.270Z,93.30
2018-07-25T00:02:40.054Z,93.50
2018-07-25T00:05:08.760Z,93.70
2018-07-25T00:07:38.222Z,94.00
2018-07-25T00:10:08.373Z,94.20
2018-07-25T00:12:37.246Z,94.50
2018-07-25T00:15:06.192Z,94.80
2018-07-25T00:17:35.002Z,95.00
2018-07-25T00:20:03.807Z,95.30
2018-07-25T00:22:33.167Z,95.70
2018-07-25T00:25:02.323Z,96.00
2018-07-25T00:27:30.950Z,96.30
2018-07-25T00:29:59.613Z,96.70
2018-07-25T00:32:28.893Z,97.00
2018-07-25T00:34:57.513Z,97.80
2018-07-25T00:37:26.665Z,97.90
2018-07-25T00:39:55.309Z,98.30
2018-07-25T00:42:23.925Z,98.70
2018-07-25T00:44:52.596Z,99.10
2018-07-25T00:47:21.250Z,99.50
2018-07-25T00:49:49.870Z,99.80
2018-07-25T00:52:18.547Z,99.90
2018-07-25T00:54:47.449Z,99.90
2018-07-25T00:57:16.167Z,99.90
2018-07-25T00:59:45.505Z,99.90
2018-07-25T01:02:14.076Z,99.90
2018-07-25T01:04:42.787Z,99.90
2018-07-25T01:07:11.388Z,99.90
2018-07-25T01:09:40.080Z,99.90
2018-07-25T01:12:08.931Z,99.90
2018-07-25T01:14:37.512Z,99.90
2018-07-25T01:17:06.419Z,99.90
2018-07-25T01:19:35.076Z,99.90
2018-07-25T01:22:03.907Z,99.90
2018-07-25T01:24:32.710Z,99.90
2018-07-25T01:27:01.301Z,99.90
2018-07-25T01:29:30.319Z,99.90
2018-07-25T01:31:58.898Z,99.90
2018-07-25T01:34:28.264Z,99.90
2018-07-25T01:36:56.919Z,99.90
2018-07-25T01:39:25.591Z,99.90
2018-07-25T01:41:54.235Z,99.90
2018-07-25T01:44:22.889Z,99.90
2018-07-25T01:46:51.819Z,99.90
2018-07-25T01:49:20.436Z,99.90
2018-07-25T01:51:49.462Z,99.90
2018-07-25T01:54:18.040Z,99.90
2018-07-25T01:59:29.868Z,99.90
2018-07-25T02:01:59.740Z,99.90
2018-07-25T02:04:28.889Z,99.90
2018-07-25T02:06:57.497Z,99.90
2018-07-25T02:09:26.050Z,99.90
2018-07-25T02:11:54.766Z,99.90
2018-07-25T02:14:23.419Z,99.90
2018-07-25T02:16:52.521Z,99.90
2018-07-25T02:19:21.198Z,99.90
2018-07-25T02:21:49.984Z,99.90
2018-07-25T02:24:18.582Z,99.90
2018-07-25T02:26:47.386Z,99.90
2018-07-25T02:29:16.299Z,99.90
2018-07-25T02:31:44.946Z,99.90
2018-07-25T02:34:18.792Z,99.90
2018-07-25T02:36:47.509Z,99.90
2018-07-25T02:39:16.222Z,99.90
2018-07-25T02:41:45.541Z,99.90
2018-07-25T02:44:14.734Z,99.90
2018-07-25T02:46:44.001Z,99.90
2018-07-25T02:49:12.672Z,99.90
2018-07-25T02:51:41.608Z,99.90
2018-07-25T02:54:10.278Z,99.90
2018-07-25T02:56:38.887Z,99.90
2018-07-25T02:59:07.511Z,99.90
2018-07-25T03:01:36.173Z,99.90
2018-07-25T03:04:04.786Z,99.90
2018-07-25T03:06:33.412Z,99.90
2018-07-25T03:09:02.303Z,99.90
2018-07-25T03:11:30.859Z,99.90
2018-07-25T03:13:59.613Z,99.90
2018-07-25T03:16:28.233Z,99.90
2018-07-25T03:18:57.509Z,99.90
2018-07-25T03:21:26.178Z,99.90
2018-07-25T03:23:55.429Z,99.90
2018-07-25T03:26:24.018Z,99.90
2018-07-25T03:28:52.643Z,99.90
2018-07-25T03:31:21.357Z,99.90
2018-07-25T03:33:49.929Z,99.90
2018-07-25T03:36:18.565Z,99.90
2018-07-25T03:38:47.243Z,99.90
2018-07-25T03:41:15.904Z,99.90
2018-07-25T03:43:44.844Z,99.90
2018-07-25T03:46:13.631Z,99.90
2018-07-25T03:48:42.271Z,99.90
2018-07-25T03:51:10.983Z,99.90
2018-07-25T03:53:39.637Z,99.90
2018-07-25T03:56:08.323Z,99.90
2018-07-25T03:58:37.032Z,99.90
2018-07-25T04:01:05.801Z,99.90
2018-07-25T04:03:34.467Z,99.90
2018-07-25T04:06:03.120Z,99.90
2018-07-25T04:08:31.752Z,99.90
2018-07-25T04:11:02.720Z,99.90
2018-07-25T04:13:31.350Z,99.90
2018-07-25T04:16:00.338Z,99.90
2018-07-25T04:18:29.047Z,99.90
2018-07-25T04:20:57.669Z,99.90
2018-07-25T04:23:27.008Z,99.90
2018-07-25T04:25:55.604Z,99.90
2018-07-25T04:28:24.350Z,99.90
2018-07-25T04:30:53.010Z,99.90
2018-07-25T04:33:21.727Z,99.90
2018-07-25T04:35:50.422Z,99.90
2018-07-25T04:38:19.474Z,99.90
2018-07-25T04:40:48.152Z,99.90
2018-07-25T04:43:16.777Z,99.90
2018-07-25T04:45:45.387Z,99.90
2018-07-25T04:48:14.018Z,99.90
2018-07-25T04:50:42.734Z,99.90
2018-07-25T04:53:11.458Z,99.90
2018-07-25T04:55:54.689Z,99.90
2018-07-25T04:58:23.439Z,99.90
2018-07-25T05:00:52.028Z,99.90
2018-07-25T05:03:20.675Z,99.90
2018-07-25T05:05:49.274Z,99.90
2018-07-25T05:08:17.885Z,99.90
2018-07-25T05:10:46.488Z,99.90
2018-07-25T05:13:15.122Z,99.90
2018-07-25T05:15:43.836Z,99.90
2018-07-25T05:18:12.510Z,99.90
2018-07-25T05:20:41.105Z,99.90
2018-07-25T05:23:09.889Z,99.90
2018-07-25T05:25:38.504Z,99.90
2018-07-25T05:28:07.447Z,99.90
2018-07-25T05:30:36.036Z,99.90
2018-07-25T05:33:05.010Z,99.90
2018-07-25T05:35:33.607Z,99.90
2018-07-25T05:38:02.663Z,99.90
2018-07-25T05:40:31.352Z,99.90
2018-07-25T05:42:59.993Z,99.90
2018-07-25T05:45:28.709Z,99.90
2018-07-25T05:47:57.671Z,99.90
2018-07-25T05:50:26.370Z,99.90
2018-07-25T05:52:55.316Z,99.90
2018-07-25T05:55:23.981Z,99.90
2018-07-25T05:57:53.185Z,99.90
2018-07-25T06:00:21.838Z,99.90
2018-07-25T06:02:50.530Z,99.90
2018-07-25T06:05:19.163Z,99.90
2018-07-25T06:07:47.878Z,99.90
2018-07-25T06:10:16.586Z,99.90
2018-07-25T06:12:45.397Z,99.90
2018-07-25T06:15:14.019Z,99.90
2018-07-25T06:17:42.705Z,99.90
2018-07-25T06:20:11.826Z,99.90
2018-07-25T06:22:40.461Z,99.90
2018-07-25T06:25:09.126Z,99.90
2018-07-25T06:27:37.701Z,99.90
2018-07-25T06:30:06.626Z,99.90
2018-07-25T06:32:35.268Z,99.90
2018-07-25T06:35:03.949Z,99.90
2018-07-25T06:37:32.735Z,99.90
2018-07-25T06:40:01.590Z,99.90
2018-07-25T06:42:30.381Z,99.90
2018-07-25T06:44:58.957Z,99.90
2018-07-25T06:47:27.649Z,99.90
2018-07-25T06:49:56.325Z,99.90
2018-07-25T06:52:31.456Z,99.90
2018-07-25T06:55:00.052Z,99.90
2018-07-25T06:57:28.708Z,99.90
2018-07-25T06:59:57.353Z,99.90
2018-07-25T07:02:26.043Z,99.90
2018-07-25T07:04:54.627Z,99.90
2018-07-25T07:07:23.334Z,99.90
2018-07-25T07:09:52.191Z,99.90
2018-07-25T07:12:20.874Z,99.90
2018-07-25T07:14:49.498Z,99.90
2018-07-25T07:17:18.196Z,99.90
2018-07-25T07:19:46.843Z,99.90
2018-07-25T07:22:15.589Z,99.90
2018-07-25T07:24:44.237Z,99.90
2018-07-25T07:27:12.875Z,99.90
2018-07-25T07:29:41.525Z,99.90
2018-07-25T07:32:10.175Z,99.90
2018-07-25T07:34:38.902Z,99.90
2018-07-25T07:37:07.514Z,99.90
2018-07-25T07:39:36.211Z,99.90
2018-07-25T07:42:04.875Z,99.90
2018-07-25T07:44:33.569Z,99.90
2018-07-25T07:47:02.200Z,99.90
2018-07-25T07:49:30.780Z,99.90
2018-07-25T07:51:59.447Z,99.90
2018-07-25T07:54:28.049Z,99.90
2018-07-25T07:56:56.708Z,99.90
2018-07-25T07:59:25.376Z,99.90
2018-07-25T08:01:53.988Z,99.90
2018-07-25T08:04:22.732Z,99.90
2018-07-25T08:06:51.429Z,99.90
2018-07-25T08:09:20.100Z,99.90
2018-07-25T08:11:48.754Z,99.90
2018-07-25T08:14:17.483Z,99.90
2018-07-25T08:16:46.126Z,99.90
2018-07-25T08:19:14.814Z,99.90
2018-07-25T08:21:43.524Z,99.90
2018-07-25T08:24:12.270Z,99.90
2018-07-25T08:26:41.448Z,99.90
2018-07-25T08:29:10.035Z,99.90
2018-07-25T08:31:38.726Z,99.90
2018-07-25T08:34:07.410Z,99.90
2018-07-25T08:36:36.048Z,99.90
2018-07-25T08:39:08.030Z,99.90
2018-07-25T08:41:36.717Z,99.50
2018-07-25T08:44:06.226Z,99.90
2018-07-25T08:46:34.843Z,99.10
2018-07-25T08:49:03.578Z,98.60
2018-07-25T08:51:32.202Z,97.80
2018-07-25T08:54:00.889Z,97.60
2018-07-25T08:56:29.465Z,97.00
2018-07-25T08:58:58.101Z,96.40
2018-07-25T09:01:27.100Z,96.40
2018-07-25T09:03:55.726Z,96.50
2018-07-25T09:06:24.430Z,96.10
2018-07-25T09:08:53.059Z,95.90
2018-07-25T09:11:28.015Z,94.50
2018-07-25T09:13:57.610Z,94.70
2018-07-25T09:16:26.277Z,94.90
2018-07-25T09:18:54.938Z,94.30
2018-07-25T09:21:23.628Z,93.60
2018-07-25T09:23:52.273Z,93.00
2018-07-25T09:26:20.969Z,93.50
2018-07-25T09:28:49.626Z,93.80
2018-07-25T09:31:18.332Z,93.40
2018-07-25T09:33:47.068Z,93.40
2018-07-25T09:36:16.018Z,93.10
2018-07-25T09:38:44.716Z,93.30
2018-07-25T09:41:13.418Z,93.60
2018-07-25T09:43:42.125Z,93.40
2018-07-25T09:46:10.808Z,93.40
2018-07-25T09:48:39.486Z,92.30
2018-07-25T09:51:08.235Z,91.70
2018-07-25T09:53:43.137Z,91.80
2018-07-25T09:56:11.739Z,92.20
2018-07-25T09:58:40.416Z,91.80
2018-07-25T10:03:54.335Z,91.20
2018-07-25T10:06:36.641Z,91.00
2018-07-25T10:09:15.540Z,91.80
2018-07-25T10:11:52.140Z,91.10
2018-07-25T10:14:29.139Z,91.40
2018-07-25T10:17:03.291Z,91.50
2018-07-25T10:19:34.399Z,91.10
2018-07-25T10:22:10.596Z,90.60
2018-07-25T10:24:46.341Z,90.70
2018-07-25T10:27:20.912Z,90.90
2018-07-25T10:29:54.557Z,90.20
2018-07-25T10:32:31.064Z,90.20
2018-07-25T10:35:03.660Z,90.10
2018-07-25T10:37:45.013Z,90.00
2018-07-25T10:42:54.834Z,87.50
2018-07-25T10:45:28.473Z,87.20
2018-07-25T10:48:11.915Z,85.90
2018-07-25T10:50:47.023Z,85.60
2018-07-25T10:53:28.382Z,86.80
2018-07-25T10:56:02.304Z,88.50
2018-07-25T10:58:46.249Z,88.20
2018-07-25T11:01:17.338Z,84.60
2018-07-25T11:04:05.340Z,82.00
2018-07-25T11:06:37.426Z,83.20
2018-07-25T11:09:14.279Z,83.70
2018-07-25T11:11:45.331Z,82.30
2018-07-25T11:14:27.258Z,79.90
2018-07-25T11:17:00.341Z,79.70
2018-07-25T11:19:38.830Z,80.40
2018-07-25T11:22:17.321Z,82.20
2018-07-25T11:24:53.899Z,81.30
2018-07-25T11:30:27.928Z,75.10
2018-07-25T11:33:09.182Z,73.60
2018-07-25T11:35:40.918Z,74.30
2018-07-25T11:38:18.478Z,76.00
2018-07-25T11:40:53.398Z,73.90
2018-07-25T11:43:28.597Z,72.20
2018-07-25T11:48:48.005Z,69.90
2018-07-25T11:51:30.578Z,69.20
2018-07-25T11:54:03.772Z,70.20
2018-07-25T11:56:46.089Z,69.00
2018-07-25T11:59:25.583Z,70.30
2018-07-25T12:02:01.456Z,68.80
2018-07-25T12:04:37.361Z,67.60
2018-07-25T12:07:10.334Z,67.70
2018-07-25T12:09:50.027Z,67.10
2018-07-25T12:12:25.735Z,67.10
2018-07-25T12:15:11.728Z,66.40
2018-07-25T12:17:55.044Z,68.30
2018-07-25T12:20:34.993Z,67.30
2018-07-25T12:23:17.591Z,66.70
2018-07-25T12:25:53.812Z,66.20
2018-07-25T12:28:30.358Z,66.40
2018-07-25T12:36:38.680Z,67.00
2018-07-25T12:39:11.645Z,66.10
2018-07-25T12:41:51.362Z,65.90
2018-07-25T12:44:33.814Z,65.80
2018-07-25T12:47:20.557Z,64.30
2018-07-25T12:50:05.197Z,64.40
2018-07-25T12:52:42.891Z,64.10
2018-07-25T12:55:22.504Z,63.30
2018-07-25T12:57:57.179Z,62.20
2018-07-25T13:00:36.191Z,62.00
2018-07-25T13:05:52.913Z,61.10
2018-07-25T13:08:21.522Z,62.70
2018-07-25T13:10:50.167Z,62.70
2018-07-25T13:13:18.945Z,63.20
2018-07-25T13:15:47.619Z,63.30
2018-07-25T13:18:16.198Z,62.20
2018-07-25T13:20:44.945Z,62.60
2018-07-25T13:23:13.523Z,62.10
2018-07-25T13:25:42.161Z,61.90
2018-07-25T13:28:10.817Z,61.30
2018-07-25T13:30:39.457Z,62.20
2018-07-25T13:33:08.347Z,61.50
2018-07-25T13:35:36.977Z,60.10
2018-07-25T13:38:05.549Z,59.90
2018-07-25T13:40:34.202Z,59.80
2018-07-25T13:43:02.887Z,59.20
2018-07-25T13:45:31.559Z,60.10
2018-07-25T13:48:00.204Z,58.80
2018-07-25T13:50:28.755Z,58.80
2018-07-25T13:52:57.422Z,58.70
2018-07-25T13:55:25.961Z,58.40
2018-07-25T13:57:54.556Z,58.70
2018-07-25T14:00:23.287Z,62.40
2018-07-25T14:02:52.100Z,63.80
2018-07-25T14:05:20.794Z,65.10
2018-07-25T14:07:49.520Z,66.00
2018-07-25T14:10:18.283Z,66.50
2018-07-25T14:12:46.862Z,66.80
2018-07-25T14:15:15.477Z,66.90
2018-07-25T14:17:44.108Z,67.70
2018-07-25T14:20:12.812Z,68.00
2018-07-25T14:22:41.579Z,66.30
2018-07-25T14:25:10.259Z,65.80
2018-07-25T14:27:39.191Z,65.90
2018-07-25T14:30:07.898Z,66.20
2018-07-25T14:32:36.726Z,65.20
2018-07-25T14:35:05.433Z,65.60
2018-07-25T14:37:34.069Z,66.10
2018-07-25T14:40:02.671Z,67.00
2018-07-25T14:42:31.258Z,67.40
2018-07-25T14:45:00.051Z,68.60
2018-07-25T14:47:28.801Z,69.10
2018-07-25T14:49:57.381Z,69.20
2018-07-25T14:52:26.127Z,69.60
2018-07-25T14:54:54.869Z,70.20
2018-07-25T14:57:23.903Z,69.50
2018-07-25T14:59:52.629Z,70.00
2018-07-25T15:02:21.496Z,69.90
2018-07-25T15:04:50.027Z,70.00
2018-07-25T15:07:18.626Z,69.80
2018-07-25T15:09:47.312Z,69.70
2018-07-25T15:15:03.350Z,70.00
2018-07-25T15:17:32.079Z,69.30
2018-07-25T15:20:00.697Z,70.00
2018-07-25T15:22:30.084Z,70.10
2018-07-25T15:24:58.864Z,69.40
2018-07-25T15:27:27.528Z,69.90
2018-07-25T15:29:56.843Z,70.10
2018-07-25T15:32:25.484Z,70.70
2018-07-25T15:34:57.871Z,71.60
2018-07-25T15:37:26.640Z,71.80
2018-07-25T15:39:55.311Z,72.60
2018-07-25T15:42:24.060Z,72.70
2018-07-25T15:44:52.758Z,74.80
2018-07-25T15:47:21.452Z,75.70
2018-07-25T15:49:49.989Z,76.90
2018-07-25T15:52:19.318Z,79.50
2018-07-25T15:54:47.946Z,79.60
2018-07-25T15:57:16.739Z,80.00
2018-07-25T15:59:45.449Z,80.30
2018-07-25T16:02:14.090Z,79.60
2018-07-25T16:04:42.683Z,79.50
2018-07-25T16:07:11.350Z,79.80
2018-07-25T16:09:40.055Z,79.10
2018-07-25T16:12:09.603Z,78.70
2018-07-25T16:14:38.424Z,76.80
2018-07-25T16:17:07.045Z,76.50
2018-07-25T16:19:35.625Z,76.70
2018-07-25T16:22:04.474Z,77.00
2018-07-25T16:24:33.076Z,77.20
2018-07-25T16:27:02.597Z,77.50
2018-07-25T16:29:31.304Z,77.80
2018-07-25T16:32:00.061Z,78.50
2018-07-25T16:34:28.674Z,79.30
2018-07-25T16:36:57.384Z,79.90
2018-07-25T16:39:26.067Z,80.00
2018-07-25T16:41:54.693Z,80.70
2018-07-25T16:44:23.444Z,81.00
2018-07-25T16:46:52.167Z,81.10
2018-07-25T16:49:20.865Z,81.80
2018-07-25T16:51:49.498Z,82.30
2018-07-25T16:54:19.008Z,82.60
2018-07-25T16:56:47.664Z,82.80
2018-07-25T16:59:16.203Z,82.60
2018-07-25T17:01:44.829Z,83.20
2018-07-25T17:04:13.465Z,83.90
2018-07-25T17:06:42.131Z,84.20
2018-07-25T17:09:12.157Z,84.60
2018-07-25T17:11:41.057Z,85.30
2018-07-25T17:14:09.699Z,86.10
2018-07-25T17:16:40.189Z,87.70
2018-07-25T17:19:09.068Z,87.40
2018-07-25T17:21:37.722Z,88.20
2018-07-25T17:24:06.975Z,88.30
2018-07-25T17:26:35.859Z,88.80
2018-07-25T17:29:04.564Z,88.90
2018-07-25T17:31:33.187Z,90.00
2018-07-25T17:34:01.822Z,90.20
2018-07-25T17:36:30.581Z,90.60
2018-07-25T17:38:59.133Z,90.90
2018-07-25T17:41:27.849Z,91.20
2018-07-25T17:43:56.449Z,91.40
2018-07-25T17:46:25.095Z,91.70
2018-07-25T17:48:54.100Z,91.90
2018-07-25T17:51:22.804Z,92.10
2018-07-25T17:53:51.495Z,92.40
2018-07-25T17:56:20.122Z,92.60
2018-07-25T17:58:48.826Z,92.90
2018-07-25T18:01:17.518Z,93.10
2018-07-25T18:03:46.184Z,93.20
2018-07-25T18:06:14.852Z,93.40
2018-07-25T18:08:43.462Z,93.80
2018-07-25T18:11:14.246Z,94.00
2018-07-25T18:13:49.003Z,94.10
2018-07-25T18:16:17.690Z,94.20
2018-07-25T18:18:46.300Z,94.40
2018-07-25T18:21:15.097Z,94.50
2018-07-25T18:23:43.904Z,94.50
2018-07-25T18:26:13.972Z,94.60
2018-07-25T18:28:44.344Z,94.70
2018-07-25T18:31:16.014Z,94.70
2018-07-25T18:33:44.740Z,94.80
2018-07-25T18:36:13.996Z,95.10
2018-07-25T18:38:42.866Z,95.40
2018-07-25T18:41:12.586Z,96.00
2018-07-25T18:43:43.050Z,96.30
2018-07-25T18:46:12.024Z,96.80
2018-07-25T18:48:40.834Z,97.50
2018-07-25T18:51:09.462Z,98.20
2018-07-25T18:53:38.378Z,98.70
2018-07-25T18:56:07.449Z,99.60
2018-07-25T18:58:38.094Z,99.90
2018-07-25T19:01:07.966Z,99.90
2018-07-25T19:03:37.540Z,99.90
2018-07-25T19:06:06.172Z,99.90
2018-07-25T19:08:34.805Z,99.90
2018-07-25T19:11:03.856Z,99.90
2018-07-25T19:13:35.338Z,99.90
2018-07-25T19:16:04.944Z,99.90
2018-07-25T19:18:34.117Z,99.90
2018-07-25T19:21:03.301Z,99.90
2018-07-25T19:23:32.564Z,99.90
2018-07-25T19:26:01.520Z,99.90
2018-07-25T19:28:30.370Z,99.90
2018-07-25T19:30:59.434Z,99.90
2018-07-25T19:33:28.559Z,99.90
2018-07-25T19:35:57.897Z,99.90
2018-07-25T19:38:27.181Z,99.90
2018-07-25T19:40:56.332Z,99.90
2018-07-25T19:43:25.603Z,99.90
2018-07-25T19:45:54.829Z,99.90
2018-07-25T19:48:24.100Z,99.90
2018-07-25T19:50:53.223Z,99.90
2018-07-25T19:53:22.884Z,99.90
2018-07-25T19:55:52.001Z,99.90
2018-07-25T19:58:21.576Z,99.90
2018-07-25T20:00:50.654Z,99.90
2018-07-25T20:03:21.177Z,99.90
2018-07-25T20:05:50.252Z,99.90
2018-07-25T20:08:20.548Z,99.90
2018-07-25T20:10:50.707Z,99.90
2018-07-25T20:13:21.291Z,99.90
2018-07-25T20:15:58.255Z,99.90
2018-07-25T20:18:28.266Z,99.90
2018-07-25T20:20:57.752Z,99.90
2018-07-25T20:23:27.604Z,99.90
2018-07-25T20:25:56.771Z,99.90
2018-07-25T20:28:27.607Z,99.90
2018-07-25T20:30:56.758Z,99.90
2018-07-25T20:33:26.059Z,99.90
2018-07-25T20:35:55.118Z,99.90
2018-07-25T20:38:25.123Z,99.90
2018-07-25T20:40:54.515Z,99.90
2018-07-25T20:43:24.563Z,99.90
2018-07-25T20:45:56.801Z,99.90
2018-07-25T20:48:27.689Z,99.90
2018-07-25T20:50:56.225Z,99.90
2018-07-25T20:53:25.534Z,99.90
2018-07-25T20:55:54.107Z,99.90
2018-07-25T20:58:22.774Z,99.90
2018-07-25T21:00:51.660Z,99.90
2018-07-25T21:03:20.424Z,99.90
2018-07-25T21:05:48.995Z,99.90
2018-07-25T21:08:17.865Z,99.90
2018-07-25T21:10:46.752Z,99.90
2018-07-25T21:13:15.852Z,99.90
2018-07-25T21:15:44.440Z,99.90
2018-07-25T21:18:13.096Z,99.90
2018-07-25T21:20:41.682Z,99.90
2018-07-25T21:23:10.265Z,99.90
2018-07-25T21:28:26.889Z,99.90
2018-07-25T21:30:55.571Z,99.90
2018-07-25T21:33:24.329Z,99.90
2018-07-25T21:35:52.940Z,99.90
2018-07-25T21:41:01.579Z,99.90
2018-07-25T21:43:30.188Z,99.90
2018-07-25T21:45:58.713Z,99.90
2018-07-25T21:48:27.368Z,99.90
2018-07-25T21:50:55.925Z,99.90
2018-07-25T21:53:24.481Z,99.90
2018-07-25T21:55:53.125Z,99.90
2018-07-25T21:58:22.043Z,99.90
2018-07-25T22:00:54.483Z,99.90
2018-07-25T22:03:23.235Z,99.90
2018-07-25T22:05:51.810Z,99.90
2018-07-25T22:08:20.431Z,99.90
2018-07-25T22:10:49.006Z,99.90
2018-07-25T22:13:18.557Z,99.90
2018-07-25T22:15:47.256Z,99.90
2018-07-25T22:18:15.850Z,99.90
2018-07-25T22:20:45.281Z,99.90
2018-07-25T22:23:14.122Z,99.90
2018-07-25T22:25:42.735Z,99.90
2018-07-25T22:28:14.499Z,99.90
2018-07-25T22:30:43.052Z,99.90
2018-07-25T22:33:11.578Z,99.90
2018-07-25T22:35:40.131Z,99.90
2018-07-25T22:38:08.694Z,99.90
2018-07-25T22:40:37.315Z,99.90
2018-07-25T22:43:06.170Z,99.90
2018-07-25T22:45:34.788Z,99.90
2018-07-25T22:48:04.061Z,99.90
2018-07-25T22:50:32.653Z,99.90
2018-07-25T22:53:01.840Z,99.90
2018-07-25T22:55:30.541Z,99.90
2018-07-25T22:57:59.271Z,99.90
2018-07-25T23:00:27.987Z,99.90
2018-07-25T23:02:56.548Z,99.90
2018-07-25T23:05:25.094Z,99.90
2018-07-25T23:07:59.135Z,99.90
2018-07-25T23:10:27.969Z,99.90
2018-07-25T23:12:56.518Z,99.90
2018-07-25T23:15:25.047Z,99.90
2018-07-25T23:17:54.348Z,99.90
2018-07-25T23:20:22.957Z,99.90
2018-07-25T23:22:57.483Z,99.90
2018-07-25T23:25:26.450Z,99.90
2018-07-25T23:27:56.248Z,99.90
2018-07-25T23:30:25.512Z,99.90
2018-07-25T23:32:54.137Z,99.90
2018-07-25T23:35:23.050Z,99.90
2018-07-25T23:37:52.071Z,99.90
2018-07-25T23:40:20.734Z,99.90
2018-07-25T23:42:54.400Z,99.90
2018-07-25T23:45:22.936Z,99.90
2018-07-25T23:47:53.997Z,99.90
2018-07-25T23:50:22.515Z,99.90
2018-07-25T23:52:51.093Z,99.90
2018-07-25T23:55:20.183Z,99.90
2018-07-25T23:57:50.268Z,99.90
